sensor_id;sensor_type;location;lat;lon;timestamp;P1;durP1;ratioP1;P2;durP2;ratioP2
65187;SDS011;51775;51.148;6.950;2023-01-28T00:01:26;2.30;;;1.17;;
65187;SDS011;51775;51.148;6.950;2023-01-28T00:03:51;3.05;;;1.17;;
65187;SDS011;51775;51.148;6.950;2023-01-28T00:06:17;1.63;;;1.00;;
65187;SDS011;51775;51.148;6.950;2023-01-28T00:08:42;1.60;;;1.00;;
65187;SDS011;51775;51.148;6.950;2023-01-28T00:11:09;1.23;;;0.90;;
65187;SDS011;51775;51.148;6.950;2023-01-28T00:13:36;1.55;;;1.00;;
65187;SDS011;51775;51.148;6.950;2023-01-28T00:16:02;1.60;;;0.90;;
65187;SDS011;51775;51.148;6.950;2023-01-28T00:18:29;2.38;;;1.10;;
65187;SDS011;51775;51.148;6.950;2023-01-28T00:21:02;1.50;;;1.00;;
65187;SDS011;51775;51.148;6.950;2023-01-28T00:23:29;1.58;;;1.02;;
65187;SDS011;51775;51.148;6.950;2023-01-28T00:25:57;1.92;;;1.05;;
65187;SDS011;51775;51.148;6.950;2023-01-28T00:28:23;1.60;;;1.00;;
65187;SDS011;51775;51.148;6.950;2023-01-28T00:30:48;1.40;;;1.00;;
65187;SDS011;51775;51.148;6.950;2023-01-28T00:33:14;1.65;;;1.02;;
65187;SDS011;51775;51.148;6.950;2023-01-28T00:35:39;1.52;;;1.15;;
65187;SDS011;51775;51.148;6.950;2023-01-28T00:38:04;1.70;;;1.20;;
65187;SDS011;51775;51.148;6.950;2023-01-28T00:40:30;1.80;;;1.05;;
65187;SDS011;51775;51.148;6.950;2023-01-28T00:42:55;1.63;;;1.10;;
65187;SDS011;51775;51.148;6.950;2023-01-28T00:45:21;1.45;;;1.10;;
65187;SDS011;51775;51.148;6.950;2023-01-28T00:47:46;2.35;;;1.10;;
65187;SDS011;51775;51.148;6.950;2023-01-28T00:50:11;2.15;;;1.25;;
65187;SDS011;51775;51.148;6.950;2023-01-28T00:52:37;2.30;;;1.30;;
65187;SDS011;51775;51.148;6.950;2023-01-28T00:55:03;1.95;;;1.20;;
65187;SDS011;51775;51.148;6.950;2023-01-28T00:57:28;1.92;;;1.27;;
65187;SDS011;51775;51.148;6.950;2023-01-28T00:59:54;2.40;;;1.30;;
65187;SDS011;51775;51.148;6.950;2023-01-28T01:02:19;1.95;;;1.20;;
65187;SDS011;51775;51.148;6.950;2023-01-28T01:04:44;1.70;;;1.20;;
65187;SDS011;51775;51.148;6.950;2023-01-28T01:07:10;1.63;;;1.10;;
65187;SDS011;51775;51.148;6.950;2023-01-28T01:09:35;1.92;;;1.30;;
65187;SDS011;51775;51.148;6.950;2023-01-28T01:12:00;2.42;;;1.33;;
65187;SDS011;51775;51.148;6.950;2023-01-28T01:14:25;1.63;;;1.20;;
65187;SDS011;51775;51.148;6.950;2023-01-28T01:16:51;2.00;;;1.30;;
65187;SDS011;51775;51.148;6.950;2023-01-28T01:19:16;1.92;;;1.25;;
65187;SDS011;51775;51.148;6.950;2023-01-28T01:21:41;1.70;;;1.15;;
65187;SDS011;51775;51.148;6.950;2023-01-28T01:24:06;1.70;;;1.10;;
65187;SDS011;51775;51.148;6.950;2023-01-28T01:26:32;2.13;;;1.13;;
65187;SDS011;51775;51.148;6.950;2023-01-28T01:28:57;2.05;;;1.20;;
65187;SDS011;51775;51.148;6.950;2023-01-28T01:31:22;2.03;;;1.25;;
65187;SDS011;51775;51.148;6.950;2023-01-28T01:33:48;1.88;;;1.30;;
65187;SDS011;51775;51.148;6.950;2023-01-28T01:36:15;1.83;;;1.15;;
65187;SDS011;51775;51.148;6.950;2023-01-28T01:38:41;1.80;;;1.25;;
65187;SDS011;51775;51.148;6.950;2023-01-28T01:41:07;1.70;;;1.27;;
65187;SDS011;51775;51.148;6.950;2023-01-28T01:46:57;1.60;;;1.10;;
65187;SDS011;51775;51.148;6.950;2023-01-28T01:49:26;1.80;;;1.10;;
65187;SDS011;51775;51.148;6.950;2023-01-28T01:52:09;1.67;;;1.10;;
65187;SDS011;51775;51.148;6.950;2023-01-28T01:54:36;1.80;;;1.20;;
65187;SDS011;51775;51.148;6.950;2023-01-28T01:57:04;1.65;;;1.10;;
65187;SDS011;51775;51.148;6.950;2023-01-28T01:59:33;1.45;;;1.00;;
65187;SDS011;51775;51.148;6.950;2023-01-28T02:02:00;1.73;;;1.27;;
65187;SDS011;51775;51.148;6.950;2023-01-28T02:04:30;2.35;;;1.15;;
65187;SDS011;51775;51.148;6.950;2023-01-28T02:06:57;1.40;;;1.05;;
65187;SDS011;51775;51.148;6.950;2023-01-28T02:09:26;1.80;;;1.20;;
65187;SDS011;51775;51.148;6.950;2023-01-28T02:11:54;2.00;;;1.30;;
65187;SDS011;51775;51.148;6.950;2023-01-28T02:14:23;1.80;;;1.20;;
65187;SDS011;51775;51.148;6.950;2023-01-28T02:16:51;2.15;;;1.20;;
65187;SDS011;51775;51.148;6.950;2023-01-28T02:19:17;2.25;;;1.05;;
65187;SDS011;51775;51.148;6.950;2023-01-28T02:21:59;1.60;;;1.00;;
65187;SDS011;51775;51.148;6.950;2023-01-28T02:34:54;1.52;;;1.10;;
65187;SDS011;51775;51.148;6.950;2023-01-28T02:37:31;2.00;;;1.30;;
65187;SDS011;51775;51.148;6.950;2023-01-28T02:40:07;1.77;;;1.17;;
65187;SDS011;51775;51.148;6.950;2023-01-28T02:42:36;1.48;;;1.10;;
65187;SDS011;51775;51.148;6.950;2023-01-28T02:45:14;1.40;;;0.95;;
65187;SDS011;51775;51.148;6.950;2023-01-28T02:47:43;1.60;;;1.10;;
65187;SDS011;51775;51.148;6.950;2023-01-28T02:50:13;2.13;;;1.20;;
65187;SDS011;51775;51.148;6.950;2023-01-28T02:55:52;1.40;;;1.00;;
65187;SDS011;51775;51.148;6.950;2023-01-28T03:03:58;1.73;;;1.25;;
65187;SDS011;51775;51.148;6.950;2023-01-28T03:06:30;1.80;;;1.13;;
65187;SDS011;51775;51.148;6.950;2023-01-28T03:09:00;1.88;;;1.17;;
65187;SDS011;51775;51.148;6.950;2023-01-28T03:11:29;1.40;;;1.00;;
65187;SDS011;51775;51.148;6.950;2023-01-28T03:13:58;1.75;;;1.00;;
65187;SDS011;51775;51.148;6.950;2023-01-28T03:16:23;1.60;;;1.00;;
65187;SDS011;51775;51.148;6.950;2023-01-28T03:18:49;1.77;;;1.20;;
65187;SDS011;51775;51.148;6.950;2023-01-28T03:21:20;1.80;;;1.17;;
65187;SDS011;51775;51.148;6.950;2023-01-28T03:26:41;2.05;;;1.20;;
65187;SDS011;51775;51.148;6.950;2023-01-28T03:29:14;2.08;;;1.30;;
65187;SDS011;51775;51.148;6.950;2023-01-28T03:31:41;1.90;;;1.17;;
65187;SDS011;51775;51.148;6.950;2023-01-28T03:34:06;1.65;;;1.20;;
65187;SDS011;51775;51.148;6.950;2023-01-28T03:36:34;2.00;;;1.20;;
65187;SDS011;51775;51.148;6.950;2023-01-28T03:38:59;2.08;;;1.30;;
65187;SDS011;51775;51.148;6.950;2023-01-28T03:41:26;2.28;;;1.23;;
65187;SDS011;51775;51.148;6.950;2023-01-28T03:43:51;2.10;;;1.40;;
65187;SDS011;51775;51.148;6.950;2023-01-28T03:46:16;1.85;;;1.30;;
65187;SDS011;51775;51.148;6.950;2023-01-28T03:48:42;2.00;;;1.38;;
65187;SDS011;51775;51.148;6.950;2023-01-28T03:51:07;2.05;;;1.40;;
65187;SDS011;51775;51.148;6.950;2023-01-28T03:53:33;2.03;;;1.30;;
65187;SDS011;51775;51.148;6.950;2023-01-28T03:55:58;1.95;;;1.33;;
65187;SDS011;51775;51.148;6.950;2023-01-28T03:58:23;2.22;;;1.40;;
65187;SDS011;51775;51.148;6.950;2023-01-28T04:00:49;2.05;;;1.33;;
65187;SDS011;51775;51.148;6.950;2023-01-28T04:03:15;1.90;;;1.33;;
65187;SDS011;51775;51.148;6.950;2023-01-28T04:05:46;2.30;;;1.60;;
65187;SDS011;51775;51.148;6.950;2023-01-28T04:08:25;2.33;;;1.45;;
65187;SDS011;51775;51.148;6.950;2023-01-28T04:10:50;2.10;;;1.40;;
65187;SDS011;51775;51.148;6.950;2023-01-28T04:13:16;2.08;;;1.48;;
65187;SDS011;51775;51.148;6.950;2023-01-28T04:15:41;1.92;;;1.45;;
65187;SDS011;51775;51.148;6.950;2023-01-28T04:18:07;1.83;;;1.40;;
65187;SDS011;51775;51.148;6.950;2023-01-28T04:20:32;1.90;;;1.40;;
65187;SDS011;51775;51.148;6.950;2023-01-28T04:22:58;2.20;;;1.42;;
65187;SDS011;51775;51.148;6.950;2023-01-28T04:25:23;2.35;;;1.60;;
65187;SDS011;51775;51.148;6.950;2023-01-28T04:27:48;2.20;;;1.60;;
65187;SDS011;51775;51.148;6.950;2023-01-28T04:30:13;2.47;;;1.60;;
65187;SDS011;51775;51.148;6.950;2023-01-28T04:32:39;2.40;;;1.65;;
65187;SDS011;51775;51.148;6.950;2023-01-28T04:35:04;2.05;;;1.42;;
65187;SDS011;51775;51.148;6.950;2023-01-28T04:37:30;2.40;;;1.80;;
65187;SDS011;51775;51.148;6.950;2023-01-28T04:39:55;2.20;;;1.60;;
65187;SDS011;51775;51.148;6.950;2023-01-28T04:42:20;2.95;;;1.67;;
65187;SDS011;51775;51.148;6.950;2023-01-28T04:44:46;2.10;;;1.55;;
65187;SDS011;51775;51.148;6.950;2023-01-28T04:47:11;2.35;;;1.63;;
65187;SDS011;51775;51.148;6.950;2023-01-28T04:49:36;2.42;;;1.60;;
65187;SDS011;51775;51.148;6.950;2023-01-28T04:52:01;2.10;;;1.50;;
65187;SDS011;51775;51.148;6.950;2023-01-28T04:54:27;2.30;;;1.60;;
65187;SDS011;51775;51.148;6.950;2023-01-28T04:56:52;2.70;;;1.80;;
65187;SDS011;51775;51.148;6.950;2023-01-28T04:59:17;1.92;;;1.50;;
65187;SDS011;51775;51.148;6.950;2023-01-28T05:01:42;2.45;;;1.70;;
65187;SDS011;51775;51.148;6.950;2023-01-28T05:04:08;2.45;;;1.75;;
65187;SDS011;51775;51.148;6.950;2023-01-28T05:06:33;2.20;;;1.60;;
65187;SDS011;51775;51.148;6.950;2023-01-28T05:08:58;2.83;;;1.85;;
65187;SDS011;51775;51.148;6.950;2023-01-28T05:11:24;2.17;;;1.63;;
65187;SDS011;51775;51.148;6.950;2023-01-28T05:13:49;2.20;;;1.70;;
65187;SDS011;51775;51.148;6.950;2023-01-28T05:16:15;2.38;;;1.65;;
65187;SDS011;51775;51.148;6.950;2023-01-28T05:18:41;3.20;;;1.88;;
65187;SDS011;51775;51.148;6.950;2023-01-28T05:21:06;2.70;;;1.90;;
65187;SDS011;51775;51.148;6.950;2023-01-28T05:23:31;2.88;;;1.90;;
65187;SDS011;51775;51.148;6.950;2023-01-28T05:25:57;3.40;;;1.90;;
65187;SDS011;51775;51.148;6.950;2023-01-28T05:28:22;2.90;;;2.00;;
65187;SDS011;51775;51.148;6.950;2023-01-28T05:30:47;2.70;;;1.92;;
65187;SDS011;51775;51.148;6.950;2023-01-28T05:33:13;2.88;;;1.73;;
65187;SDS011;51775;51.148;6.950;2023-01-28T05:35:38;2.67;;;1.70;;
65187;SDS011;51775;51.148;6.950;2023-01-28T05:38:03;3.17;;;2.05;;
65187;SDS011;51775;51.148;6.950;2023-01-28T05:40:29;2.60;;;2.00;;
65187;SDS011;51775;51.148;6.950;2023-01-28T05:42:54;2.47;;;1.80;;
65187;SDS011;51775;51.148;6.950;2023-01-28T05:45:19;2.63;;;1.77;;
65187;SDS011;51775;51.148;6.950;2023-01-28T05:47:45;2.58;;;1.75;;
65187;SDS011;51775;51.148;6.950;2023-01-28T05:50:10;2.30;;;1.60;;
65187;SDS011;51775;51.148;6.950;2023-01-28T05:52:37;2.72;;;1.92;;
65187;SDS011;51775;51.148;6.950;2023-01-28T05:55:02;2.90;;;2.10;;
65187;SDS011;51775;51.148;6.950;2023-01-28T05:57:28;2.65;;;1.90;;
65187;SDS011;51775;51.148;6.950;2023-01-28T05:59:54;3.13;;;2.20;;
65187;SDS011;51775;51.148;6.950;2023-01-28T06:02:19;3.13;;;2.00;;
65187;SDS011;51775;51.148;6.950;2023-01-28T06:04:44;3.15;;;2.10;;
65187;SDS011;51775;51.148;6.950;2023-01-28T06:07:10;2.78;;;1.90;;
65187;SDS011;51775;51.148;6.950;2023-01-28T06:09:35;3.13;;;1.98;;
65187;SDS011;51775;51.148;6.950;2023-01-28T06:12:00;2.83;;;2.00;;
65187;SDS011;51775;51.148;6.950;2023-01-28T06:14:25;2.47;;;1.70;;
65187;SDS011;51775;51.148;6.950;2023-01-28T06:16:51;3.00;;;2.10;;
65187;SDS011;51775;51.148;6.950;2023-01-28T06:19:16;3.03;;;2.00;;
65187;SDS011;51775;51.148;6.950;2023-01-28T06:21:41;3.00;;;2.05;;
65187;SDS011;51775;51.148;6.950;2023-01-28T06:24:06;3.53;;;2.50;;
65187;SDS011;51775;51.148;6.950;2023-01-28T06:26:32;3.17;;;2.42;;
65187;SDS011;51775;51.148;6.950;2023-01-28T06:28:57;3.40;;;2.45;;
65187;SDS011;51775;51.148;6.950;2023-01-28T06:31:22;3.85;;;2.50;;
65187;SDS011;51775;51.148;6.950;2023-01-28T06:33:48;3.67;;;2.60;;
65187;SDS011;51775;51.148;6.950;2023-01-28T06:36:13;3.20;;;2.38;;
65187;SDS011;51775;51.148;6.950;2023-01-28T06:38:38;3.38;;;2.33;;
65187;SDS011;51775;51.148;6.950;2023-01-28T06:41:03;3.75;;;2.25;;
65187;SDS011;51775;51.148;6.950;2023-01-28T06:43:29;3.83;;;2.47;;
65187;SDS011;51775;51.148;6.950;2023-01-28T06:45:54;3.20;;;2.30;;
65187;SDS011;51775;51.148;6.950;2023-01-28T06:48:19;3.72;;;2.60;;
65187;SDS011;51775;51.148;6.950;2023-01-28T06:50:45;4.10;;;2.50;;
65187;SDS011;51775;51.148;6.950;2023-01-28T06:53:11;3.80;;;2.60;;
65187;SDS011;51775;51.148;6.950;2023-01-28T06:55:36;3.60;;;2.55;;
65187;SDS011;51775;51.148;6.950;2023-01-28T06:58:02;3.67;;;2.40;;
65187;SDS011;51775;51.148;6.950;2023-01-28T07:00:27;3.42;;;2.40;;
65187;SDS011;51775;51.148;6.950;2023-01-28T07:02:54;3.42;;;2.53;;
65187;SDS011;51775;51.148;6.950;2023-01-28T07:05:20;3.42;;;2.55;;
65187;SDS011;51775;51.148;6.950;2023-01-28T07:07:45;4.03;;;2.63;;
65187;SDS011;51775;51.148;6.950;2023-01-28T07:10:10;3.60;;;2.50;;
65187;SDS011;51775;51.148;6.950;2023-01-28T07:12:36;3.90;;;2.60;;
65187;SDS011;51775;51.148;6.950;2023-01-28T07:15:01;3.80;;;2.40;;
65187;SDS011;51775;51.148;6.950;2023-01-28T07:17:26;3.60;;;2.50;;
65187;SDS011;51775;51.148;6.950;2023-01-28T07:19:52;5.07;;;2.60;;
65187;SDS011;51775;51.148;6.950;2023-01-28T07:22:17;3.75;;;2.70;;
65187;SDS011;51775;51.148;6.950;2023-01-28T07:24:42;3.72;;;2.58;;
65187;SDS011;51775;51.148;6.950;2023-01-28T07:27:07;3.63;;;2.50;;
65187;SDS011;51775;51.148;6.950;2023-01-28T07:29:33;3.53;;;2.63;;
65187;SDS011;51775;51.148;6.950;2023-01-28T07:31:58;3.47;;;2.67;;
65187;SDS011;51775;51.148;6.950;2023-01-28T07:34:24;4.00;;;3.05;;
65187;SDS011;51775;51.148;6.950;2023-01-28T07:36:49;3.83;;;2.90;;
65187;SDS011;51775;51.148;6.950;2023-01-28T07:39:15;4.25;;;2.65;;
65187;SDS011;51775;51.148;6.950;2023-01-28T07:41:40;3.65;;;2.67;;
65187;SDS011;51775;51.148;6.950;2023-01-28T07:44:05;3.67;;;2.63;;
65187;SDS011;51775;51.148;6.950;2023-01-28T07:46:30;4.15;;;3.03;;
65187;SDS011;51775;51.148;6.950;2023-01-28T07:48:56;4.03;;;2.90;;
65187;SDS011;51775;51.148;6.950;2023-01-28T07:51:21;4.00;;;2.87;;
65187;SDS011;51775;51.148;6.950;2023-01-28T07:53:46;3.83;;;2.70;;
65187;SDS011;51775;51.148;6.950;2023-01-28T07:56:11;3.88;;;2.80;;
65187;SDS011;51775;51.148;6.950;2023-01-28T07:58:37;4.07;;;3.03;;
65187;SDS011;51775;51.148;6.950;2023-01-28T08:01:02;3.72;;;2.67;;
65187;SDS011;51775;51.148;6.950;2023-01-28T08:03:27;3.92;;;2.90;;
65187;SDS011;51775;51.148;6.950;2023-01-28T08:05:54;3.80;;;2.88;;
65187;SDS011;51775;51.148;6.950;2023-01-28T08:08:24;3.50;;;2.83;;
65187;SDS011;51775;51.148;6.950;2023-01-28T08:10:51;3.88;;;2.90;;
65187;SDS011;51775;51.148;6.950;2023-01-28T08:13:17;4.63;;;3.30;;
65187;SDS011;51775;51.148;6.950;2023-01-28T08:15:43;3.97;;;3.10;;
65187;SDS011;51775;51.148;6.950;2023-01-28T08:18:09;5.32;;;2.90;;
65187;SDS011;51775;51.148;6.950;2023-01-28T08:20:35;3.58;;;2.72;;
65187;SDS011;51775;51.148;6.950;2023-01-28T08:25:39;3.53;;;2.60;;
65187;SDS011;51775;51.148;6.950;2023-01-28T08:28:04;3.92;;;2.75;;
65187;SDS011;51775;51.148;6.950;2023-01-28T08:30:36;3.60;;;2.88;;
65187;SDS011;51775;51.148;6.950;2023-01-28T08:33:06;4.28;;;3.22;;
65187;SDS011;51775;51.148;6.950;2023-01-28T08:35:33;3.30;;;2.80;;
65187;SDS011;51775;51.148;6.950;2023-01-28T08:38:00;3.88;;;2.83;;
65187;SDS011;51775;51.148;6.950;2023-01-28T08:40:26;3.58;;;2.75;;
65187;SDS011;51775;51.148;6.950;2023-01-28T08:42:53;3.53;;;2.67;;
65187;SDS011;51775;51.148;6.950;2023-01-28T08:45:34;4.05;;;3.00;;
65187;SDS011;51775;51.148;6.950;2023-01-28T08:48:38;4.00;;;2.90;;
65187;SDS011;51775;51.148;6.950;2023-01-28T08:51:03;3.85;;;2.90;;
65187;SDS011;51775;51.148;6.950;2023-01-28T08:53:29;4.18;;;3.13;;
65187;SDS011;51775;51.148;6.950;2023-01-28T08:55:54;4.70;;;3.20;;
65187;SDS011;51775;51.148;6.950;2023-01-28T08:58:19;4.37;;;3.23;;
65187;SDS011;51775;51.148;6.950;2023-01-28T09:00:45;4.28;;;3.00;;
65187;SDS011;51775;51.148;6.950;2023-01-28T09:03:11;3.80;;;2.72;;
65187;SDS011;51775;51.148;6.950;2023-01-28T09:05:37;4.13;;;3.03;;
65187;SDS011;51775;51.148;6.950;2023-01-28T09:08:03;4.18;;;3.10;;
65187;SDS011;51775;51.148;6.950;2023-01-28T09:10:33;3.88;;;2.97;;
65187;SDS011;51775;51.148;6.950;2023-01-28T09:13:03;4.15;;;2.95;;
65187;SDS011;51775;51.148;6.950;2023-01-28T09:15:44;3.65;;;2.92;;
65187;SDS011;51775;51.148;6.950;2023-01-28T09:18:09;3.70;;;2.63;;
65187;SDS011;51775;51.148;6.950;2023-01-28T09:20:35;3.95;;;2.80;;
65187;SDS011;51775;51.148;6.950;2023-01-28T09:23:01;3.95;;;2.92;;
65187;SDS011;51775;51.148;6.950;2023-01-28T09:25:27;4.15;;;2.85;;
65187;SDS011;51775;51.148;6.950;2023-01-28T09:27:53;4.35;;;3.00;;
65187;SDS011;51775;51.148;6.950;2023-01-28T09:30:18;4.05;;;2.85;;
65187;SDS011;51775;51.148;6.950;2023-01-28T09:32:43;3.80;;;3.00;;
65187;SDS011;51775;51.148;6.950;2023-01-28T09:35:09;4.47;;;3.05;;
65187;SDS011;51775;51.148;6.950;2023-01-28T09:37:34;4.50;;;3.10;;
65187;SDS011;51775;51.148;6.950;2023-01-28T09:40:00;3.80;;;2.90;;
65187;SDS011;51775;51.148;6.950;2023-01-28T09:42:33;3.67;;;2.67;;
65187;SDS011;51775;51.148;6.950;2023-01-28T09:47:58;4.10;;;3.03;;
65187;SDS011;51775;51.148;6.950;2023-01-28T09:50:30;5.18;;;3.25;;
65187;SDS011;51775;51.148;6.950;2023-01-28T09:53:41;4.20;;;3.20;;
65187;SDS011;51775;51.148;6.950;2023-01-28T09:56:24;4.13;;;3.03;;
65187;SDS011;51775;51.148;6.950;2023-01-28T09:58:46;5.35;;;3.75;;
65187;SDS011;51775;51.148;6.950;2023-01-28T10:07:13;3.53;;;2.70;;
65187;SDS011;51775;51.148;6.950;2023-01-28T10:12:27;4.03;;;2.58;;
65187;SDS011;51775;51.148;6.950;2023-01-28T10:15:20;4.55;;;2.80;;
65187;SDS011;51775;51.148;6.950;2023-01-28T10:17:55;4.20;;;2.90;;
65187;SDS011;51775;51.148;6.950;2023-01-28T10:20:27;4.85;;;2.60;;
65187;SDS011;51775;51.148;6.950;2023-01-28T10:25:28;3.10;;;2.40;;
65187;SDS011;51775;51.148;6.950;2023-01-28T10:27:56;4.13;;;2.70;;
65187;SDS011;51775;51.148;6.950;2023-01-28T10:33:44;4.03;;;2.60;;
65187;SDS011;51775;51.148;6.950;2023-01-28T10:36:00;3.50;;;2.50;;
65187;SDS011;51775;51.148;6.950;2023-01-28T10:38:26;3.97;;;2.58;;
65187;SDS011;51775;51.148;6.950;2023-01-28T10:40:52;4.75;;;2.80;;
65187;SDS011;51775;51.148;6.950;2023-01-28T10:43:22;3.42;;;2.58;;
65187;SDS011;51775;51.148;6.950;2023-01-28T10:46:03;3.65;;;2.60;;
65187;SDS011;51775;51.148;6.950;2023-01-28T10:51:35;3.92;;;2.70;;
65187;SDS011;51775;51.148;6.950;2023-01-28T10:54:02;3.30;;;2.60;;
65187;SDS011;51775;51.148;6.950;2023-01-28T10:56:41;3.63;;;2.53;;
65187;SDS011;51775;51.148;6.950;2023-01-28T11:01:52;3.30;;;2.45;;
65187;SDS011;51775;51.148;6.950;2023-01-28T11:04:30;3.20;;;2.33;;
65187;SDS011;51775;51.148;6.950;2023-01-28T11:09:27;3.95;;;2.60;;
65187;SDS011;51775;51.148;6.950;2023-01-28T11:11:58;3.78;;;2.40;;
65187;SDS011;51775;51.148;6.950;2023-01-28T11:14:35;3.83;;;2.50;;
65187;SDS011;51775;51.148;6.950;2023-01-28T11:17:00;4.05;;;2.65;;
65187;SDS011;51775;51.148;6.950;2023-01-28T11:19:34;3.88;;;2.58;;
65187;SDS011;51775;51.148;6.950;2023-01-28T11:22:01;4.25;;;2.55;;
65187;SDS011;51775;51.148;6.950;2023-01-28T11:24:28;2.60;;;1.95;;
65187;SDS011;51775;51.148;6.950;2023-01-28T11:26:56;3.25;;;2.40;;
65187;SDS011;51775;51.148;6.950;2023-01-28T11:29:23;4.55;;;2.58;;
65187;SDS011;51775;51.148;6.950;2023-01-28T11:31:50;4.53;;;2.55;;
65187;SDS011;51775;51.148;6.950;2023-01-28T11:34:16;3.15;;;2.33;;
65187;SDS011;51775;51.148;6.950;2023-01-28T11:36:50;4.50;;;2.50;;
65187;SDS011;51775;51.148;6.950;2023-01-28T11:39:23;3.85;;;2.50;;
65187;SDS011;51775;51.148;6.950;2023-01-28T11:41:49;3.83;;;2.60;;
65187;SDS011;51775;51.148;6.950;2023-01-28T11:46:45;4.03;;;2.40;;
65187;SDS011;51775;51.148;6.950;2023-01-28T11:49:25;3.58;;;2.50;;
65187;SDS011;51775;51.148;6.950;2023-01-28T11:58:00;3.13;;;2.50;;
65187;SDS011;51775;51.148;6.950;2023-01-28T12:00:34;4.85;;;2.53;;
65187;SDS011;51775;51.148;6.950;2023-01-28T12:14:20;8.07;;;2.90;;
65187;SDS011;51775;51.148;6.950;2023-01-28T12:17:13;4.80;;;2.70;;
65187;SDS011;51775;51.148;6.950;2023-01-28T12:19:51;4.18;;;2.53;;
65187;SDS011;51775;51.148;6.950;2023-01-28T12:30:35;3.90;;;2.60;;
65187;SDS011;51775;51.148;6.950;2023-01-28T12:41:19;4.75;;;2.72;;
65187;SDS011;51775;51.148;6.950;2023-01-28T12:44:04;3.63;;;2.45;;
65187;SDS011;51775;51.148;6.950;2023-01-28T12:57:12;2.92;;;2.25;;
65187;SDS011;51775;51.148;6.950;2023-01-28T12:59:47;3.38;;;2.25;;
65187;SDS011;51775;51.148;6.950;2023-01-28T13:07:24;3.30;;;2.40;;
65187;SDS011;51775;51.148;6.950;2023-01-28T13:12:58;3.67;;;2.65;;
65187;SDS011;51775;51.148;6.950;2023-01-28T13:15:24;5.07;;;2.60;;
65187;SDS011;51775;51.148;6.950;2023-01-28T13:17:56;3.85;;;2.58;;
65187;SDS011;51775;51.148;6.950;2023-01-28T13:20:30;3.33;;;2.38;;
65187;SDS011;51775;51.148;6.950;2023-01-28T13:23:21;3.85;;;2.58;;
65187;SDS011;51775;51.148;6.950;2023-01-28T13:25:55;4.00;;;2.72;;
65187;SDS011;51775;51.148;6.950;2023-01-28T13:28:31;4.15;;;2.35;;
65187;SDS011;51775;51.148;6.950;2023-01-28T13:31:01;3.92;;;2.60;;
65187;SDS011;51775;51.148;6.950;2023-01-28T13:33:35;4.05;;;2.60;;
65187;SDS011;51775;51.148;6.950;2023-01-28T13:36:13;3.90;;;2.40;;
65187;SDS011;51775;51.148;6.950;2023-01-28T13:38:46;4.95;;;2.60;;
65187;SDS011;51775;51.148;6.950;2023-01-28T13:41:23;4.25;;;2.53;;
65187;SDS011;51775;51.148;6.950;2023-01-28T13:43:48;5.63;;;2.80;;
65187;SDS011;51775;51.148;6.950;2023-01-28T13:46:35;3.40;;;2.42;;
65187;SDS011;51775;51.148;6.950;2023-01-28T13:48:59;9.18;;;3.50;;
65187;SDS011;51775;51.148;6.950;2023-01-28T13:51:34;4.35;;;2.90;;
65187;SDS011;51775;51.148;6.950;2023-01-28T13:54:13;7.88;;;2.90;;
65187;SDS011;51775;51.148;6.950;2023-01-28T13:59:36;3.63;;;2.50;;
65187;SDS011;51775;51.148;6.950;2023-01-28T14:19:01;3.40;;;2.50;;
65187;SDS011;51775;51.148;6.950;2023-01-28T14:21:27;7.20;;;3.30;;
65187;SDS011;51775;51.148;6.950;2023-01-28T14:23:58;4.00;;;2.50;;
65187;SDS011;51775;51.148;6.950;2023-01-28T14:29:27;3.95;;;2.40;;
65187;SDS011;51775;51.148;6.950;2023-01-28T14:32:10;7.13;;;2.58;;
65187;SDS011;51775;51.148;6.950;2023-01-28T14:34:38;4.40;;;2.67;;
65187;SDS011;51775;51.148;6.950;2023-01-28T14:37:06;4.32;;;2.60;;
65187;SDS011;51775;51.148;6.950;2023-01-28T14:39:43;3.50;;;2.30;;
65187;SDS011;51775;51.148;6.950;2023-01-28T14:42:22;3.67;;;2.47;;
65187;SDS011;51775;51.148;6.950;2023-01-28T14:47:49;3.95;;;2.60;;
65187;SDS011;51775;51.148;6.950;2023-01-28T14:56:12;4.80;;;2.70;;
65187;SDS011;51775;51.148;6.950;2023-01-28T14:58:55;3.13;;;2.15;;
65187;SDS011;51775;51.148;6.950;2023-01-28T15:01:29;4.00;;;2.70;;
65187;SDS011;51775;51.148;6.950;2023-01-28T15:03:55;6.15;;;2.70;;
65187;SDS011;51775;51.148;6.950;2023-01-28T15:06:29;3.30;;;2.25;;
65187;SDS011;51775;51.148;6.950;2023-01-28T15:09:08;4.00;;;2.60;;
65187;SDS011;51775;51.148;6.950;2023-01-28T15:11:37;4.07;;;2.70;;
65187;SDS011;51775;51.148;6.950;2023-01-28T15:14:07;3.67;;;2.50;;
65187;SDS011;51775;51.148;6.950;2023-01-28T15:16:40;4.43;;;2.67;;
65187;SDS011;51775;51.148;6.950;2023-01-28T15:19:10;3.75;;;2.60;;
65187;SDS011;51775;51.148;6.950;2023-01-28T15:21:35;3.60;;;2.40;;
65187;SDS011;51775;51.148;6.950;2023-01-28T15:24:02;3.75;;;2.50;;
65187;SDS011;51775;51.148;6.950;2023-01-28T15:26:31;3.60;;;2.20;;
65187;SDS011;51775;51.148;6.950;2023-01-28T15:28:57;4.60;;;2.80;;
65187;SDS011;51775;51.148;6.950;2023-01-28T15:31:27;4.05;;;2.70;;
65187;SDS011;51775;51.148;6.950;2023-01-28T15:34:14;4.90;;;3.10;;
65187;SDS011;51775;51.148;6.950;2023-01-28T15:36:44;3.90;;;2.65;;
65187;SDS011;51775;51.148;6.950;2023-01-28T15:39:16;4.10;;;2.80;;
65187;SDS011;51775;51.148;6.950;2023-01-28T15:41:44;3.97;;;2.70;;
65187;SDS011;51775;51.148;6.950;2023-01-28T15:44:15;7.80;;;3.47;;
65187;SDS011;51775;51.148;6.950;2023-01-28T15:46:51;5.88;;;3.45;;
65187;SDS011;51775;51.148;6.950;2023-01-28T15:49:16;5.93;;;3.08;;
65187;SDS011;51775;51.148;6.950;2023-01-28T15:51:41;4.65;;;3.05;;
65187;SDS011;51775;51.148;6.950;2023-01-28T15:54:13;5.93;;;3.40;;
65187;SDS011;51775;51.148;6.950;2023-01-28T15:56:39;5.53;;;2.90;;
65187;SDS011;51775;51.148;6.950;2023-01-28T15:59:46;4.00;;;2.90;;
65187;SDS011;51775;51.148;6.950;2023-01-28T16:04:42;4.00;;;2.50;;
65187;SDS011;51775;51.148;6.950;2023-01-28T16:07:07;5.55;;;3.00;;
65187;SDS011;51775;51.148;6.950;2023-01-28T16:09:33;4.90;;;2.90;;
65187;SDS011;51775;51.148;6.950;2023-01-28T16:12:00;4.93;;;3.20;;
65187;SDS011;51775;51.148;6.950;2023-01-28T16:14:27;6.45;;;3.40;;
65187;SDS011;51775;51.148;6.950;2023-01-28T16:16:55;4.00;;;2.60;;
65187;SDS011;51775;51.148;6.950;2023-01-28T16:19:28;4.65;;;2.28;;
65187;SDS011;51775;51.148;6.950;2023-01-28T16:21:57;4.50;;;2.90;;
65187;SDS011;51775;51.148;6.950;2023-01-28T16:24:27;3.95;;;2.50;;
65187;SDS011;51775;51.148;6.950;2023-01-28T16:27:18;7.63;;;3.80;;
65187;SDS011;51775;51.148;6.950;2023-01-28T16:29:50;5.88;;;4.15;;
65187;SDS011;51775;51.148;6.950;2023-01-28T16:32:26;6.85;;;4.43;;
65187;SDS011;51775;51.148;6.950;2023-01-28T16:34:54;7.60;;;5.10;;
65187;SDS011;51775;51.148;6.950;2023-01-28T16:37:20;6.00;;;4.30;;
65187;SDS011;51775;51.148;6.950;2023-01-28T16:39:46;6.30;;;3.90;;
65187;SDS011;51775;51.148;6.950;2023-01-28T16:42:12;6.70;;;4.15;;
65187;SDS011;51775;51.148;6.950;2023-01-28T16:44:38;5.22;;;3.70;;
65187;SDS011;51775;51.148;6.950;2023-01-28T16:47:04;6.10;;;4.30;;
65187;SDS011;51775;51.148;6.950;2023-01-28T16:49:29;6.93;;;4.25;;
65187;SDS011;51775;51.148;6.950;2023-01-28T16:51:55;3.85;;;2.78;;
65187;SDS011;51775;51.148;6.950;2023-01-28T16:54:20;5.50;;;3.15;;
65187;SDS011;51775;51.148;6.950;2023-01-28T16:56:46;6.00;;;3.67;;
65187;SDS011;51775;51.148;6.950;2023-01-28T16:59:11;7.97;;;4.65;;
65187;SDS011;51775;51.148;6.950;2023-01-28T17:01:37;9.02;;;5.30;;
65187;SDS011;51775;51.148;6.950;2023-01-28T17:04:03;6.97;;;4.05;;
65187;SDS011;51775;51.148;6.950;2023-01-28T17:06:28;4.97;;;3.10;;
65187;SDS011;51775;51.148;6.950;2023-01-28T17:08:53;11.15;;;5.82;;
65187;SDS011;51775;51.148;6.950;2023-01-28T17:11:19;9.10;;;5.22;;
65187;SDS011;51775;51.148;6.950;2023-01-28T17:13:44;7.70;;;4.00;;
65187;SDS011;51775;51.148;6.950;2023-01-28T17:16:09;6.70;;;3.60;;
65187;SDS011;51775;51.148;6.950;2023-01-28T17:18:34;4.45;;;2.65;;